sensor_id;sensor_type;location;lat;lon;timestamp;temperature;humidity
32947;DHT22;54465;51.230;22.504;2023-01-28T00:04:14;0.90;98.20
32947;DHT22;54465;51.230;22.504;2023-01-28T00:09:16;0.90;98.00
32947;DHT22;54465;51.230;22.504;2023-01-28T00:14:16;0.80;97.60
32947;DHT22;54465;51.230;22.504;2023-01-28T00:19:17;0.70;97.60
32947;DHT22;54465;51.230;22.504;2023-01-28T00:24:18;0.70;97.80
32947;DHT22;54465;51.230;22.504;2023-01-28T00:29:18;0.70;97.80
32947;DHT22;54465;51.230;22.504;2023-01-28T00:34:19;0.70;97.80
32947;DHT22;54465;51.230;22.504;2023-01-28T00:39:20;0.70;97.70
32947;DHT22;54465;51.230;22.504;2023-01-28T00:44:21;0.70;97.70
32947;DHT22;54465;51.230;22.504;2023-01-28T00:49:22;0.70;97.60
32947;DHT22;54465;51.230;22.504;2023-01-28T00:54:23;0.70;97.40
32947;DHT22;54465;51.230;22.504;2023-01-28T00:59:23;0.60;97.30
32947;DHT22;54465;51.230;22.504;2023-01-28T01:04:24;0.60;97.30
32947;DHT22;54465;51.230;22.504;2023-01-28T01:09:27;0.60;97.30
32947;DHT22;54465;51.230;22.504;2023-01-28T01:14:28;0.60;97.50
32947;DHT22;54465;51.230;22.504;2023-01-28T01:19:28;0.60;97.60
32947;DHT22;54465;51.230;22.504;2023-01-28T01:24:29;0.70;97.40
32947;DHT22;54465;51.230;22.504;2023-01-28T01:29:33;0.70;97.10
32947;DHT22;54465;51.230;22.504;2023-01-28T01:34:34;0.70;97.00
32947;DHT22;54465;51.230;22.504;2023-01-28T01:39:34;0.60;96.70
32947;DHT22;54465;51.230;22.504;2023-01-28T01:44:58;0.60;96.90
32947;DHT22;54465;51.230;22.504;2023-01-28T01:50:02;0.60;97.00
32947;DHT22;54465;51.230;22.504;2023-01-28T01:55:08;0.70;97.10
32947;DHT22;54465;51.230;22.504;2023-01-28T02:00:10;0.70;97.00
32947;DHT22;54465;51.230;22.504;2023-01-28T02:05:18;0.70;96.90
32947;DHT22;54465;51.230;22.504;2023-01-28T02:10:19;0.70;96.70
32947;DHT22;54465;51.230;22.504;2023-01-28T02:15:23;0.60;96.20
32947;DHT22;54465;51.230;22.504;2023-01-28T02:21:22;0.60;96.10
32947;DHT22;54465;51.230;22.504;2023-01-28T02:31:39;0.60;96.40
32947;DHT22;54465;51.230;22.504;2023-01-28T02:36:56;0.60;96.30
32947;DHT22;54465;51.230;22.504;2023-01-28T02:42:08;0.60;96.20
32947;DHT22;54465;51.230;22.504;2023-01-28T02:47:11;0.70;96.30
32947;DHT22;54465;51.230;22.504;2023-01-28T03:03:34;0.70;96.00
32947;DHT22;54465;51.230;22.504;2023-01-28T03:08:45;0.70;96.00
32947;DHT22;54465;51.230;22.504;2023-01-28T03:14:06;0.70;95.90
32947;DHT22;54465;51.230;22.504;2023-01-28T03:19:26;0.70;95.60
32947;DHT22;54465;51.230;22.504;2023-01-28T03:24:49;0.70;95.60
32947;DHT22;54465;51.230;22.504;2023-01-28T03:30:14;0.70;95.60
32947;DHT22;54465;51.230;22.504;2023-01-28T03:35:42;0.60;95.20
32947;DHT22;54465;51.230;22.504;2023-01-28T03:41:03;0.60;95.70
32947;DHT22;54465;51.230;22.504;2023-01-28T03:46:04;0.60;95.30
32947;DHT22;54465;51.230;22.504;2023-01-28T03:51:06;0.60;95.50
32947;DHT22;54465;51.230;22.504;2023-01-28T03:56:07;0.70;95.40
32947;DHT22;54465;51.230;22.504;2023-01-28T04:01:08;0.60;95.40
32947;DHT22;54465;51.230;22.504;2023-01-28T04:06:09;0.60;95.50
32947;DHT22;54465;51.230;22.504;2023-01-28T04:11:28;0.60;95.50
32947;DHT22;54465;51.230;22.504;2023-01-28T04:16:31;0.70;95.60
32947;DHT22;54465;51.230;22.504;2023-01-28T04:21:31;0.70;95.70
32947;DHT22;54465;51.230;22.504;2023-01-28T04:26:34;0.80;95.70
32947;DHT22;54465;51.230;22.504;2023-01-28T04:31:35;0.80;95.60
32947;DHT22;54465;51.230;22.504;2023-01-28T04:36:57;0.70;95.70
32947;DHT22;54465;51.230;22.504;2023-01-28T04:42:16;0.80;95.90
32947;DHT22;54465;51.230;22.504;2023-01-28T04:47:44;0.80;96.10
32947;DHT22;54465;51.230;22.504;2023-01-28T04:53:00;0.80;96.00
32947;DHT22;54465;51.230;22.504;2023-01-28T04:58:20;0.80;96.30
32947;DHT22;54465;51.230;22.504;2023-01-28T05:03:23;0.80;96.40
32947;DHT22;54465;51.230;22.504;2023-01-28T05:08:24;0.70;96.70
32947;DHT22;54465;51.230;22.504;2023-01-28T05:13:25;0.70;96.90
32947;DHT22;54465;51.230;22.504;2023-01-28T05:18:26;0.70;97.30
32947;DHT22;54465;51.230;22.504;2023-01-28T05:23:45;0.70;97.60
32947;DHT22;54465;51.230;22.504;2023-01-28T05:28:46;0.70;97.90
32947;DHT22;54465;51.230;22.504;2023-01-28T05:33:47;0.70;98.10
32947;DHT22;54465;51.230;22.504;2023-01-28T05:38:48;0.70;98.20
32947;DHT22;54465;51.230;22.504;2023-01-28T05:43:49;0.80;98.60
32947;DHT22;54465;51.230;22.504;2023-01-28T05:49:16;0.80;98.70
32947;DHT22;54465;51.230;22.504;2023-01-28T05:54:36;0.70;99.10
32947;DHT22;54465;51.230;22.504;2023-01-28T05:59:36;0.70;98.90
32947;DHT22;54465;51.230;22.504;2023-01-28T06:04:37;0.70;99.00
32947;DHT22;54465;51.230;22.504;2023-01-28T06:09:38;0.70;99.40
32947;DHT22;54465;51.230;22.504;2023-01-28T06:14:40;0.60;99.80
32947;DHT22;54465;51.230;22.504;2023-01-28T06:19:49;0.60;99.90
32947;DHT22;54465;51.230;22.504;2023-01-28T06:24:50;0.60;99.90
32947;DHT22;54465;51.230;22.504;2023-01-28T06:29:51;0.50;99.90
32947;DHT22;54465;51.230;22.504;2023-01-28T06:34:51;0.60;99.90
32947;DHT22;54465;51.230;22.504;2023-01-28T06:39:52;0.60;99.90
32947;DHT22;54465;51.230;22.504;2023-01-28T06:44:53;0.60;99.90
32947;DHT22;54465;51.230;22.504;2023-01-28T06:49:53;0.50;99.90
32947;DHT22;54465;51.230;22.504;2023-01-28T06:54:54;0.50;99.90
32947;DHT22;54465;51.230;22.504;2023-01-28T06:59:55;0.50;99.90
32947;DHT22;54465;51.230;22.504;2023-01-28T07:04:56;0.50;99.90
32947;DHT22;54465;51.230;22.504;2023-01-28T07:09:56;0.50;99.90
32947;DHT22;54465;51.230;22.504;2023-01-28T07:14:57;0.60;99.90
32947;DHT22;54465;51.230;22.504;2023-01-28T07:19:58;0.60;99.90
32947;DHT22;54465;51.230;22.504;2023-01-28T07:24:58;0.70;99.90
32947;DHT22;54465;51.230;22.504;2023-01-28T07:30:00;0.70;99.90
32947;DHT22;54465;51.230;22.504;2023-01-28T07:35:01;0.70;99.90
32947;DHT22;54465;51.230;22.504;2023-01-28T07:40:02;0.80;99.90
32947;DHT22;54465;51.230;22.504;2023-01-28T07:45:03;0.80;99.90
32947;DHT22;54465;51.230;22.504;2023-01-28T07:50:04;0.90;99.90
32947;DHT22;54465;51.230;22.504;2023-01-28T07:55:05;1.00;99.90
32947;DHT22;54465;51.230;22.504;2023-01-28T08:00:07;1.00;99.90
32947;DHT22;54465;51.230;22.504;2023-01-28T08:05:16;1.10;99.90
32947;DHT22;54465;51.230;22.504;2023-01-28T08:10:18;1.10;99.90
32947;DHT22;54465;51.230;22.504;2023-01-28T08:15:20;1.20;99.90
32947;DHT22;54465;51.230;22.504;2023-01-28T08:20:21;1.30;99.90
32947;DHT22;54465;51.230;22.504;2023-01-28T08:25:22;1.20;99.90
32947;DHT22;54465;51.230;22.504;2023-01-28T08:30:23;1.20;99.90
32947;DHT22;54465;51.230;22.504;2023-01-28T08:35:25;1.20;99.90
32947;DHT22;54465;51.230;22.504;2023-01-28T08:40:26;1.20;99.90
32947;DHT22;54465;51.230;22.504;2023-01-28T08:45:27;1.10;99.90
32947;DHT22;54465;51.230;22.504;2023-01-28T08:50:31;1.10;99.90
32947;DHT22;54465;51.230;22.504;2023-01-28T08:55:33;1.20;99.90
32947;DHT22;54465;51.230;22.504;2023-01-28T09:00:34;1.30;99.90
32947;DHT22;54465;51.230;22.504;2023-01-28T09:05:35;1.40;99.90
32947;DHT22;54465;51.230;22.504;2023-01-28T09:10:37;1.40;99.90
32947;DHT22;54465;51.230;22.504;2023-01-28T09:15:38;1.40;99.90
32947;DHT22;54465;51.230;22.504;2023-01-28T09:20:39;1.40;99.90
32947;DHT22;54465;51.230;22.504;2023-01-28T09:25:39;1.30;99.90
32947;DHT22;54465;51.230;22.504;2023-01-28T09:30:40;1.20;99.90
32947;DHT22;54465;51.230;22.504;2023-01-28T09:35:41;1.20;99.90
32947;DHT22;54465;51.230;22.504;2023-01-28T09:40:42;1.30;99.90
32947;DHT22;54465;51.230;22.504;2023-01-28T09:45:47;1.50;99.90
32947;DHT22;54465;51.230;22.504;2023-01-28T09:50:50;1.60;99.90
32947;DHT22;54465;51.230;22.504;2023-01-28T09:55:55;1.50;99.90
32947;DHT22;54465;51.230;22.504;2023-01-28T10:01:40;1.50;99.90
32947;DHT22;54465;51.230;22.504;2023-01-28T10:17:55;1.30;99.90
32947;DHT22;54465;51.230;22.504;2023-01-28T10:23:23;1.30;99.90
32947;DHT22;54465;51.230;22.504;2023-01-28T10:28:28;1.30;99.90
32947;DHT22;54465;51.230;22.504;2023-01-28T10:38:30;1.10;99.90
32947;DHT22;54465;51.230;22.504;2023-01-28T10:43:33;1.10;99.90
32947;DHT22;54465;51.230;22.504;2023-01-28T10:49:05;1.10;99.90
32947;DHT22;54465;51.230;22.504;2023-01-28T10:54:18;1.00;99.90
32947;DHT22;54465;51.230;22.504;2023-01-28T10:59:29;1.00;99.90
32947;DHT22;54465;51.230;22.504;2023-01-28T11:04:33;1.10;99.90
32947;DHT22;54465;51.230;22.504;2023-01-28T11:09:36;1.10;99.90
32947;DHT22;54465;51.230;22.504;2023-01-28T11:14:37;1.00;99.90
32947;DHT22;54465;51.230;22.504;2023-01-28T11:19:38;1.10;99.90
32947;DHT22;54465;51.230;22.504;2023-01-28T11:24:38;1.20;99.90
32947;DHT22;54465;51.230;22.504;2023-01-28T11:29:42;1.20;99.90
32947;DHT22;54465;51.230;22.504;2023-01-28T11:34:49;1.20;99.90
32947;DHT22;54465;51.230;22.504;2023-01-28T11:45:43;1.20;99.90
32947;DHT22;54465;51.230;22.504;2023-01-28T12:11:29;1.20;99.90
32947;DHT22;54465;51.230;22.504;2023-01-28T12:17:21;1.20;99.90
32947;DHT22;54465;51.230;22.504;2023-01-28T12:37:59;1.30;99.90
32947;DHT22;54465;51.230;22.504;2023-01-28T12:43:10;1.30;99.90
32947;DHT22;54465;51.230;22.504;2023-01-28T12:48:21;1.30;99.90
32947;DHT22;54465;51.230;22.504;2023-01-28T12:53:39;1.40;99.90
32947;DHT22;54465;51.230;22.504;2023-01-28T12:59:22;1.50;99.90
32947;DHT22;54465;51.230;22.504;2023-01-28T13:04:35;1.50;99.90
32947;DHT22;54465;51.230;22.504;2023-01-28T13:09:47;1.50;99.90
32947;DHT22;54465;51.230;22.504;2023-01-28T13:14:49;1.40;99.90
32947;DHT22;54465;51.230;22.504;2023-01-28T13:19:51;1.40;99.90
32947;DHT22;54465;51.230;22.504;2023-01-28T13:24:51;1.30;99.90
32947;DHT22;54465;51.230;22.504;2023-01-28T13:30:17;1.30;99.90
32947;DHT22;54465;51.230;22.504;2023-01-28T13:40:34;1.30;99.90
32947;DHT22;54465;51.230;22.504;2023-01-28T13:45:35;1.30;99.90
32947;DHT22;54465;51.230;22.504;2023-01-28T13:50:41;1.30;99.90
32947;DHT22;54465;51.230;22.504;2023-01-28T13:55:43;1.30;99.90
32947;DHT22;54465;51.230;22.504;2023-01-28T14:16:29;1.30;99.90
32947;DHT22;54465;51.230;22.504;2023-01-28T14:21:33;1.40;99.90
32947;DHT22;54465;51.230;22.504;2023-01-28T14:31:48;1.40;99.90
32947;DHT22;54465;51.230;22.504;2023-01-28T14:36:52;1.40;99.90
32947;DHT22;54465;51.230;22.504;2023-01-28T14:41:58;1.30;99.90
32947;DHT22;54465;51.230;22.504;2023-01-28T14:53:01;1.30;99.90
32947;DHT22;54465;51.230;22.504;2023-01-28T14:58:25;1.30;99.90
32947;DHT22;54465;51.230;22.504;2023-01-28T15:03:28;1.20;99.90
32947;DHT22;54465;51.230;22.504;2023-01-28T15:08:29;1.20;99.90
32947;DHT22;54465;51.230;22.504;2023-01-28T15:13:36;1.20;99.90
32947;DHT22;54465;51.230;22.504;2023-01-28T15:18:42;1.30;99.90
32947;DHT22;54465;51.230;22.504;2023-01-28T15:23:48;1.30;99.90
32947;DHT22;54465;51.230;22.504;2023-01-28T15:28:50;1.30;99.90
32947;DHT22;54465;51.230;22.504;2023-01-28T15:34:01;1.40;99.90
32947;DHT22;54465;51.230;22.504;2023-01-28T15:39:02;1.30;99.90
32947;DHT22;54465;51.230;22.504;2023-01-28T15:44:03;1.30;99.90
32947;DHT22;54465;51.230;22.504;2023-01-28T15:49:04;1.30;99.90
32947;DHT22;54465;51.230;22.504;2023-01-28T15:54:07;1.30;99.90
32947;DHT22;54465;51.230;22.504;2023-01-28T15:59:22;1.20;99.90
32947;DHT22;54465;51.230;22.504;2023-01-28T16:04:26;1.20;99.90
32947;DHT22;54465;51.230;22.504;2023-01-28T16:09:30;1.20;99.90
32947;DHT22;54465;51.230;22.504;2023-01-28T16:14:41;1.10;99.90
32947;DHT22;54465;51.230;22.504;2023-01-28T16:19:45;1.20;99.90
32947;DHT22;54465;51.230;22.504;2023-01-28T16:24:49;1.10;99.90
32947;DHT22;54465;51.230;22.504;2023-01-28T16:29:52;1.20;99.90
32947;DHT22;54465;51.230;22.504;2023-01-28T16:34:53;1.10;99.90
32947;DHT22;54465;51.230;22.504;2023-01-28T16:39:53;1.10;99.90
32947;DHT22;54465;51.230;22.504;2023-01-28T16:44:54;1.00;99.90
32947;DHT22;54465;51.230;22.504;2023-01-28T16:49:55;1.00;99.90
32947;DHT22;54465;51.230;22.504;2023-01-28T16:54:55;1.00;99.90
32947;DHT22;54465;51.230;22.504;2023-01-28T16:59:56;1.00;99.90
32947;DHT22;54465;51.230;22.504;2023-01-28T17:04:57;1.00;99.90
32947;DHT22;54465;51.230;22.504;2023-01-28T17:09:58;1.00;99.90
32947;DHT22;54465;51.230;22.504;2023-01-28T17:14:58;1.00;99.90
32947;DHT22;54465;51.230;22.504;2023-01-28T17:19:59;1.00;99.90
32947;DHT22;54465;51.230;22.504;2023-01-28T17:25:00;1.10;99.90
32947;DHT22;54465;51.230;22.504;2023-01-28T17:30:00;1.10;99.90
32947;DHT22;54465;51.230;22.504;2023-01-28T17:35:01;1.10;99.90
32947;DHT22;54465;51.230;22.504;2023-01-28T17:40:02;1.10;99.90
32947;DHT22;54465;51.230;22.504;2023-01-28T17:45:03;1.20;99.90
32947;DHT22;54465;51.230;22.504;2023-01-28T17:50:05;1.10;99.90
32947;DHT22;54465;51.230;22.504;2023-01-28T17:55:06;1.10;99.90
32947;DHT22;54465;51.230;22.504;2023-01-28T18:00:08;1.10;99.90
32947;DHT22;54465;51.230;22.504;2023-01-28T18:05:12;1.20;99.90
32947;DHT22;54465;51.230;22.504;2023-01-28T18:10:16;1.20;99.90
32947;DHT22;54465;51.230;22.504;2023-01-28T18:15:16;1.20;99.90
32947;DHT22;54465;51.230;22.504;2023-01-28T18:20:17;1.10;99.90
32947;DHT22;54465;51.230;22.504;2023-01-28T18:25:18;1.20;99.90
32947;DHT22;54465;51.230;22.504;2023-01-28T18:30:19;1.20;99.90
32947;DHT22;54465;51.230;22.504;2023-01-28T18:35:20;1.20;99.90
32947;DHT22;54465;51.230;22.504;2023-01-28T18:40:21;1.10;99.90
32947;DHT22;54465;51.230;22.504;2023-01-28T18:45:22;1.10;99.90
32947;DHT22;54465;51.230;22.504;2023-01-28T18:50:22;1.00;99.90
32947;DHT22;54465;51.230;22.504;2023-01-28T18:55:23;0.90;99.90
32947;DHT22;54465;51.230;22.504;2023-01-28T19:00:24;0.90;99.90
32947;DHT22;54465;51.230;22.504;2023-01-28T19:05:25;0.80;99.90
32947;DHT22;54465;51.230;22.504;2023-01-28T19:10:25;0.90;99.90
32947;DHT22;54465;51.230;22.504;2023-01-28T19:15:26;0.90;99.90
32947;DHT22;54465;51.230;22.504;2023-01-28T19:20:27;0.90;99.90
32947;DHT22;54465;51.230;22.504;2023-01-28T19:25:28;0.90;99.90
32947;DHT22;54465;51.230;22.504;2023-01-28T19:30:29;0.90;99.90
32947;DHT22;54465;51.230;22.504;2023-01-28T19:35:29;0.90;99.90
32947;DHT22;54465;51.230;22.504;2023-01-28T19:40:30;0.90;99.90
32947;DHT22;54465;51.230;22.504;2023-01-28T19:45:31;1.00;99.90
32947;DHT22;54465;51.230;22.504;2023-01-28T19:50:32;1.00;99.90
32947;DHT22;54465;51.230;22.504;2023-01-28T19:55:33;1.00;99.90
32947;DHT22;54465;51.230;22.504;2023-01-28T20:00:37;1.10;99.90
32947;DHT22;54465;51.230;22.504;2023-01-28T20:05:38;1.10;99.90
32947;DHT22;54465;51.230;22.504;2023-01-28T20:10:38;1.10;99.90
32947;DHT22;54465;51.230;22.504;2023-01-28T20:15:39;1.10;99.90
32947;DHT22;54465;51.230;22.504;2023-01-28T20:20:40;1.10;99.90
32947;DHT22;54465;51.230;22.504;2023-01-28T20:25:40;1.00;99.90
32947;DHT22;54465;51.230;22.504;2023-01-28T20:30:41;1.00;99.90
32947;DHT22;54465;51.230;22.504;2023-01-28T20:35:43;1.00;99.90
32947;DHT22;54465;51.230;22.504;2023-01-28T20:40:44;1.00;99.90
32947;DHT22;54465;51.230;22.504;2023-01-28T20:45:46;1.00;99.90
32947;DHT22;54465;51.230;22.504;2023-01-28T20:50:47;1.00;99.90
32947;DHT22;54465;51.230;22.504;2023-01-28T20:55:57;1.00;99.90
32947;DHT22;54465;51.230;22.504;2023-01-28T21:00:58;1.00;99.90
32947;DHT22;54465;51.230;22.504;2023-01-28T21:06:00;1.00;99.90
32947;DHT22;54465;51.230;22.504;2023-01-28T21:11:01;0.90;99.90
32947;DHT22;54465;51.230;22.504;2023-01-28T21:16:03;0.90;99.90
32947;DHT22;54465;51.230;22.504;2023-01-28T21:21:11;0.90;99.90
32947;DHT22;54465;51.230;22.504;2023-01-28T21:26:14;0.90;99.90
32947;DHT22;54465;51.230;22.504;2023-01-28T21:31:17;0.90;99.90
32947;DHT22;54465;51.230;22.504;2023-01-28T21:36:19;0.80;99.90
32947;DHT22;54465;51.230;22.504;2023-01-28T21:41:20;0.80;99.90
